createdAt,value
2018-03-30T00:00:07.514Z,5.36
2018-03-30T00:02:35.806Z,5.41
2018-03-30T00:05:09.412Z,5.38
2018-03-30T00:07:37.710Z,5.31
2018-03-30T00:10:06.893Z,5.08
2018-03-30T00:12:35.441Z,5.24
2018-03-30T00:15:06.562Z,5.39
2018-03-30T00:17:34.856Z,5.33
2018-03-30T00:20:06.620Z,5.36
2018-03-30T00:22:34.921Z,5.33
2018-03-30T00:25:06.656Z,5.27
2018-03-30T00:27:34.963Z,5.33
2018-03-30T00:30:06.664Z,5.30
2018-03-30T00:32:34.936Z,5.29
2018-03-30T00:35:06.864Z,5.36
2018-03-30T00:37:35.296Z,5.22
2018-03-30T00:40:07.413Z,5.20
2018-03-30T00:42:35.677Z,5.31
2018-03-30T00:45:07.237Z,5.32
2018-03-30T00:47:35.970Z,5.32
2018-03-30T00:50:05.518Z,5.34
2018-03-30T00:52:33.773Z,5.47
2018-03-30T00:55:05.733Z,5.35
2018-03-30T00:57:33.997Z,5.47
2018-03-30T01:00:05.449Z,5.65
2018-03-30T01:02:34.034Z,5.73
2018-03-30T01:05:05.556Z,5.81
2018-03-30T01:07:33.929Z,6.01
2018-03-30T01:10:05.388Z,6.13
2018-03-30T01:12:33.679Z,6.14
2018-03-30T01:15:05.151Z,6.00
2018-03-30T01:17:33.443Z,5.90
2018-03-30T01:20:05.525Z,5.77
2018-03-30T01:22:33.858Z,5.65
2018-03-30T01:25:05.335Z,5.65
2018-03-30T01:27:33.611Z,5.92
2018-03-30T01:30:05.019Z,6.06
2018-03-30T01:32:33.704Z,6.13
2018-03-30T01:35:05.014Z,6.15
2018-03-30T01:37:33.287Z,6.18
2018-03-30T01:40:08.247Z,6.25
2018-03-30T01:42:37.752Z,6.40
2018-03-30T01:45:06.639Z,6.48
2018-03-30T01:47:34.985Z,6.57
2018-03-30T01:50:06.470Z,6.62
2018-03-30T01:52:34.761Z,6.67
2018-03-30T01:55:05.784Z,6.71
2018-03-30T01:57:34.346Z,6.73
2018-03-30T02:00:06.441Z,6.68
2018-03-30T02:02:34.764Z,6.75
2018-03-30T02:05:06.760Z,6.64
2018-03-30T02:07:35.025Z,6.67
2018-03-30T02:10:06.331Z,6.63
2018-03-30T02:12:34.722Z,6.62
2018-03-30T02:15:05.615Z,6.59
2018-03-30T02:17:33.965Z,6.62
2018-03-30T02:20:05.424Z,6.47
2018-03-30T02:22:33.832Z,6.41
2018-03-30T02:25:05.610Z,6.35
2018-03-30T02:27:34.537Z,6.25
2018-03-30T02:30:06.221Z,6.28
2018-03-30T02:32:34.494Z,6.29
2018-03-30T02:35:05.822Z,6.27
2018-03-30T02:37:34.098Z,6.17
2018-03-30T02:40:05.824Z,6.02
2018-03-30T02:42:34.266Z,6.03
2018-03-30T02:45:05.917Z,6.14
2018-03-30T02:47:34.196Z,6.12
2018-03-30T02:50:06.125Z,6.13
2018-03-30T02:52:34.421Z,6.10
2018-03-30T02:55:05.809Z,6.16
2018-03-30T02:57:34.131Z,6.17
2018-03-30T03:00:05.692Z,6.20
2018-03-30T03:02:34.504Z,6.19
2018-03-30T03:05:05.944Z,6.18
2018-03-30T03:07:34.205Z,6.20
2018-03-30T03:10:07.410Z,6.17
2018-03-30T03:12:36.147Z,6.26
2018-03-30T03:15:06.165Z,6.19
2018-03-30T03:17:34.432Z,6.23
2018-03-30T03:20:05.894Z,6.22
2018-03-30T03:22:37.766Z,6.22
2018-03-30T03:25:06.057Z,6.17
2018-03-30T03:27:34.329Z,6.20
2018-03-30T03:30:05.926Z,6.17
2018-03-30T03:32:34.230Z,6.16
2018-03-30T03:35:05.656Z,6.15
2018-03-30T03:37:33.912Z,6.07
2018-03-30T03:40:06.231Z,6.11
2018-03-30T03:42:34.495Z,6.00
2018-03-30T03:45:05.749Z,6.12
2018-03-30T03:47:34.432Z,6.09
2018-03-30T03:50:06.332Z,6.11
2018-03-30T03:52:34.726Z,6.02
2018-03-30T03:55:06.801Z,6.14
2018-03-30T03:57:35.089Z,6.11
2018-03-30T04:00:07.119Z,6.17
2018-03-30T04:02:35.418Z,6.09
2018-03-30T04:05:07.529Z,6.12
2018-03-30T04:07:35.801Z,6.12
2018-03-30T04:10:07.026Z,6.14
2018-03-30T04:12:35.313Z,6.17
2018-03-30T04:15:06.500Z,6.21
2018-03-30T04:17:35.118Z,6.20
2018-03-30T04:20:07.652Z,6.26
2018-03-30T04:22:35.951Z,6.30
2018-03-30T04:25:05.937Z,6.28
2018-03-30T04:27:34.222Z,6.27
2018-03-30T04:30:09.218Z,6.20
2018-03-30T04:32:37.633Z,6.23
2018-03-30T04:35:05.914Z,6.19
2018-03-30T04:37:34.237Z,6.05
2018-03-30T04:40:09.357Z,6.03
2018-03-30T04:42:37.636Z,5.88
2018-03-30T04:45:06.060Z,6.19
2018-03-30T04:47:34.826Z,6.21
2018-03-30T04:50:06.546Z,6.16
2018-03-30T04:52:34.832Z,6.20
2018-03-30T04:55:06.048Z,6.12
2018-03-30T04:57:34.801Z,6.12
2018-03-30T05:00:06.800Z,6.02
2018-03-30T05:02:35.080Z,6.10
2018-03-30T05:05:05.930Z,6.05
2018-03-30T05:07:34.207Z,6.10
2018-03-30T05:10:09.238Z,6.13
2018-03-30T05:12:37.504Z,6.01
2018-03-30T05:15:05.776Z,6.03
2018-03-30T05:17:34.213Z,6.45
2018-03-30T05:20:09.238Z,6.72
2018-03-30T05:22:37.502Z,6.69
2018-03-30T05:25:05.784Z,6.68
2018-03-30T05:27:34.058Z,6.63
2018-03-30T05:30:05.492Z,6.50
2018-03-30T05:32:33.758Z,6.54
2018-03-30T05:35:05.248Z,6.45
2018-03-30T05:37:33.542Z,6.51
2018-03-30T05:40:08.290Z,6.47
2018-03-30T05:42:36.566Z,6.48
2018-03-30T05:45:06.100Z,6.39
2018-03-30T05:47:34.370Z,6.32
2018-03-30T05:50:05.794Z,6.32
2018-03-30T05:52:34.096Z,6.28
2018-03-30T05:55:05.834Z,6.51
2018-03-30T05:57:34.549Z,6.67
2018-03-30T06:00:08.494Z,6.74
2018-03-30T06:02:37.042Z,6.83
2018-03-30T06:05:06.129Z,6.84
2018-03-30T06:07:34.389Z,7.03
2018-03-30T06:10:07.441Z,7.21
2018-03-30T06:12:35.728Z,7.28
2018-03-30T06:15:05.842Z,7.70
2018-03-30T06:17:34.142Z,7.75
2018-03-30T06:20:06.016Z,8.04
2018-03-30T06:22:34.327Z,8.01
2018-03-30T06:25:09.327Z,8.03
2018-03-30T06:27:37.859Z,8.10
2018-03-30T06:30:06.140Z,8.35
2018-03-30T06:32:34.428Z,8.33
2018-03-30T06:35:08.444Z,8.31
2018-03-30T06:37:36.732Z,8.50
2018-03-30T06:40:06.233Z,7.82
2018-03-30T06:42:34.520Z,8.27
2018-03-30T06:45:06.599Z,8.45
2018-03-30T06:47:34.869Z,8.95
2018-03-30T06:50:07.036Z,8.73
2018-03-30T06:52:35.300Z,9.39
2018-03-30T06:55:07.064Z,9.46
2018-03-30T06:57:35.345Z,9.77
2018-03-30T07:00:07.065Z,9.96
2018-03-30T07:02:39.580Z,9.81
2018-03-30T07:05:07.851Z,9.76
2018-03-30T07:07:36.334Z,9.76
2018-03-30T07:10:06.447Z,9.28
2018-03-30T07:12:34.769Z,10.26
2018-03-30T07:15:06.691Z,10.37
2018-03-30T07:17:34.972Z,12.52
2018-03-30T07:20:07.025Z,11.50
2018-03-30T07:22:35.361Z,11.69
2018-03-30T07:25:06.635Z,11.81
2018-03-30T07:27:34.885Z,11.21
2018-03-30T07:30:06.620Z,11.42
2018-03-30T07:32:35.073Z,10.77
2018-03-30T07:35:06.449Z,11.31
2018-03-30T07:37:34.813Z,11.47
2018-03-30T07:40:07.585Z,11.41
2018-03-30T07:42:35.849Z,12.28
2018-03-30T07:45:07.508Z,11.71
2018-03-30T07:47:36.757Z,12.22
2018-03-30T07:50:06.882Z,13.49
2018-03-30T07:52:35.444Z,14.20
2018-03-30T07:55:07.926Z,13.68
2018-03-30T07:57:36.261Z,13.93
2018-03-30T08:00:06.088Z,12.16
2018-03-30T08:02:34.369Z,11.76
2018-03-30T08:05:09.732Z,12.58
2018-03-30T08:07:38.012Z,12.52
2018-03-30T08:10:06.278Z,14.42
2018-03-30T08:12:34.554Z,15.44
2018-03-30T08:15:08.597Z,15.51
2018-03-30T08:17:37.118Z,15.69
2018-03-30T08:20:06.412Z,15.28
2018-03-30T08:22:35.125Z,15.35
2018-03-30T08:25:06.849Z,15.07
2018-03-30T08:27:35.249Z,14.79
2018-03-30T08:30:07.439Z,15.08
2018-03-30T08:32:35.714Z,14.34
2018-03-30T08:35:08.024Z,13.77
2018-03-30T08:37:37.124Z,14.12
2018-03-30T08:40:06.356Z,14.34
2018-03-30T08:42:35.275Z,14.92
2018-03-30T08:45:07.503Z,14.96
2018-03-30T08:47:36.148Z,15.36
2018-03-30T08:50:07.735Z,14.19
2018-03-30T08:52:36.028Z,14.81
2018-03-30T08:55:05.994Z,13.71
2018-03-30T08:57:34.589Z,15.06
2018-03-30T09:00:06.037Z,14.19
2018-03-30T09:02:34.328Z,15.34
2018-03-30T09:05:06.425Z,15.45
2018-03-30T09:07:35.039Z,14.65
2018-03-30T09:10:07.060Z,15.19
2018-03-30T09:12:35.372Z,13.66
2018-03-30T09:15:06.840Z,15.18
2018-03-30T09:17:35.123Z,15.05
2018-03-30T09:20:06.825Z,14.93
2018-03-30T09:22:35.353Z,13.63
2018-03-30T09:25:07.841Z,13.73
2018-03-30T09:27:36.549Z,13.72
2018-03-30T09:30:06.631Z,14.00
2018-03-30T09:32:34.939Z,14.29
2018-03-30T09:35:06.299Z,13.94
2018-03-30T09:37:34.590Z,13.77
2018-03-30T09:40:06.712Z,15.85
2018-03-30T09:42:34.982Z,16.85
2018-03-30T09:45:07.392Z,17.28
2018-03-30T09:47:35.665Z,17.08
2018-03-30T09:50:07.386Z,17.32
2018-03-30T09:52:35.654Z,17.00
2018-03-30T09:55:07.766Z,14.80
2018-03-30T09:57:36.857Z,16.54
2018-03-30T10:00:06.455Z,15.70
2018-03-30T10:02:34.739Z,15.17
2018-03-30T10:05:06.343Z,15.14
2018-03-30T10:07:34.613Z,14.84
2018-03-30T10:10:06.054Z,15.83
2018-03-30T10:12:35.286Z,15.78
2018-03-30T10:15:06.305Z,15.02
2018-03-30T10:17:34.596Z,15.43
2018-03-30T10:20:07.610Z,14.31
2018-03-30T10:22:35.925Z,15.24
2018-03-30T10:25:07.316Z,15.98
2018-03-30T10:27:35.772Z,15.58
2018-03-30T10:30:07.473Z,16.87
2018-03-30T10:32:35.770Z,16.91
2018-03-30T10:35:08.064Z,16.87
2018-03-30T10:37:36.360Z,16.80
2018-03-30T10:40:06.263Z,17.14
2018-03-30T10:42:34.550Z,16.10
2018-03-30T10:45:09.702Z,16.31
2018-03-30T10:47:38.012Z,14.99
2018-03-30T10:50:06.284Z,16.01
2018-03-30T10:52:34.585Z,16.22
2018-03-30T10:55:06.132Z,16.52
2018-03-30T10:57:34.793Z,17.37
2018-03-30T11:00:08.841Z,17.18
2018-03-30T11:02:37.093Z,17.01
2018-03-30T11:05:06.596Z,17.41
2018-03-30T11:07:35.145Z,17.58
2018-03-30T11:10:07.144Z,17.75
2018-03-30T11:12:35.534Z,17.08
2018-03-30T11:15:09.397Z,17.35
2018-03-30T11:17:37.673Z,16.64
2018-03-30T11:20:06.676Z,17.80
2018-03-30T11:22:34.908Z,17.89
2018-03-30T11:25:06.706Z,17.50
2018-03-30T11:27:34.978Z,16.97
2018-03-30T11:30:06.393Z,17.79
2018-03-30T11:32:34.804Z,18.95
2018-03-30T11:35:06.932Z,18.34
2018-03-30T11:37:35.206Z,17.47
2018-03-30T11:40:06.635Z,17.51
2018-03-30T11:42:34.915Z,16.60
2018-03-30T11:45:06.594Z,15.98
2018-03-30T11:47:34.870Z,15.70
2018-03-30T11:50:07.013Z,14.55
2018-03-30T11:52:35.318Z,15.01
2018-03-30T11:55:07.481Z,14.84
2018-03-30T11:57:35.749Z,14.21
2018-03-30T12:00:07.694Z,14.19
2018-03-30T12:02:36.144Z,14.60
2018-03-30T12:05:08.374Z,14.61
2018-03-30T12:07:36.652Z,14.77
2018-03-30T12:10:06.569Z,15.06
2018-03-30T12:12:34.880Z,14.81
2018-03-30T12:15:06.997Z,14.92
2018-03-30T12:17:35.298Z,14.76
2018-03-30T12:20:07.305Z,14.56
2018-03-30T12:22:35.590Z,14.90
2018-03-30T12:25:07.734Z,14.51
2018-03-30T12:27:36.027Z,15.15
2018-03-30T12:30:08.003Z,15.74
2018-03-30T12:32:36.284Z,15.24
2018-03-30T12:35:06.234Z,14.98
2018-03-30T12:37:34.486Z,14.89
2018-03-30T12:40:05.856Z,14.75
2018-03-30T12:42:34.280Z,14.49
2018-03-30T12:45:09.258Z,15.24
2018-03-30T12:47:37.536Z,14.18
2018-03-30T12:50:08.039Z,14.66
2018-03-30T12:52:36.333Z,14.54
2018-03-30T12:55:06.342Z,14.68
2018-03-30T12:57:34.606Z,14.70
2018-03-30T13:00:07.434Z,14.12
2018-03-30T13:02:35.733Z,14.28
2018-03-30T13:05:07.729Z,14.44
2018-03-30T13:07:36.480Z,14.50
2018-03-30T13:10:08.201Z,14.18
2018-03-30T13:12:36.465Z,13.96
2018-03-30T13:15:07.041Z,14.35
2018-03-30T13:17:35.369Z,14.45
2018-03-30T13:20:07.125Z,14.49
2018-03-30T13:22:35.376Z,14.57
2018-03-30T13:25:07.540Z,14.74
2018-03-30T13:27:35.817Z,14.63
2018-03-30T13:30:07.064Z,14.38
2018-03-30T13:32:35.340Z,14.53
2018-03-30T13:35:07.634Z,14.40
2018-03-30T13:37:35.909Z,14.52
2018-03-30T13:40:07.956Z,14.80
2018-03-30T13:42:36.241Z,14.71
2018-03-30T13:45:08.139Z,14.72
2018-03-30T13:47:36.418Z,14.55
2018-03-30T13:50:13.418Z,14.77
2018-03-30T13:52:49.492Z,14.84
2018-03-30T13:55:18.041Z,14.96
2018-03-30T13:57:48.029Z,14.77
2018-03-30T14:00:25.680Z,14.85
2018-03-30T14:02:57.608Z,15.19
2018-03-30T14:05:40.609Z,14.85
2018-03-30T14:11:10.351Z,14.35
2018-03-30T14:13:38.654Z,14.77
2018-03-30T14:16:13.406Z,14.37
2018-03-30T14:18:53.489Z,14.62
2018-03-30T14:21:23.152Z,14.41
2018-03-30T14:23:54.240Z,14.43
2018-03-30T14:26:26.566Z,14.56
2018-03-30T14:35:26.445Z,14.53
2018-03-30T14:38:01.275Z,14.67
2018-03-30T14:40:31.428Z,14.38
2018-03-30T14:43:03.344Z,14.24
2018-03-30T14:45:37.833Z,14.22
2018-03-30T14:48:07.214Z,14.48
2018-03-30T14:50:36.317Z,14.65
2018-03-30T14:53:06.073Z,14.42
2018-03-30T14:55:41.982Z,14.75
2018-03-30T14:58:25.933Z,14.67
2018-03-30T15:00:54.845Z,14.67
2018-03-30T15:03:24.945Z,14.60
2018-03-30T15:05:56.213Z,14.61
2018-03-30T15:08:31.041Z,14.50
2018-03-30T15:14:01.416Z,14.35
2018-03-30T15:16:34.358Z,14.56
2018-03-30T15:19:03.321Z,14.44
2018-03-30T15:24:28.320Z,14.42
2018-03-30T15:27:02.105Z,14.36
2018-03-30T15:29:37.450Z,14.31
2018-03-30T15:35:04.074Z,14.20
2018-03-30T15:37:32.876Z,14.20
2018-03-30T15:40:08.595Z,14.10
2018-03-30T15:42:42.413Z,14.02
2018-03-30T15:45:13.993Z,14.09
2018-03-30T15:47:42.379Z,14.13
2018-03-30T15:50:10.656Z,13.87
2018-03-30T15:52:38.921Z,14.07
2018-03-30T15:55:07.223Z,14.14
2018-03-30T15:57:35.514Z,14.17
2018-03-30T16:00:08.798Z,14.18
2018-03-30T16:02:38.584Z,14.18
2018-03-30T16:05:06.941Z,14.19
2018-03-30T16:07:35.330Z,14.22
2018-03-30T16:10:11.360Z,14.05
2018-03-30T16:12:40.489Z,13.77
2018-03-30T16:15:08.778Z,13.88
2018-03-30T16:17:37.075Z,13.74
2018-03-30T16:20:06.542Z,13.84
2018-03-30T16:22:34.307Z,13.95
2018-03-30T16:25:08.426Z,13.82
2018-03-30T16:27:36.158Z,13.93
2018-03-30T16:30:07.739Z,13.79
2018-03-30T16:32:35.525Z,13.63
2018-03-30T16:35:06.975Z,13.72
2018-03-30T16:37:34.723Z,13.47
2018-03-30T16:40:06.412Z,13.45
2018-03-30T16:42:34.380Z,13.42
2018-03-30T16:45:08.554Z,13.37
2018-03-30T16:47:36.301Z,13.39
2018-03-30T16:50:07.287Z,13.33
2018-03-30T16:52:35.150Z,13.25
2018-03-30T16:55:05.861Z,13.17
2018-03-30T16:57:33.873Z,13.17
2018-03-30T17:00:04.728Z,13.12
2018-03-30T17:02:32.453Z,13.07
2018-03-30T17:05:00.221Z,13.04
2018-03-30T17:07:30.998Z,13.04
2018-03-30T17:09:59.017Z,12.98
2018-03-30T17:12:27.599Z,12.93
2018-03-30T17:14:55.347Z,12.90
2018-03-30T17:17:23.110Z,12.92
2018-03-30T17:22:25.410Z,12.85
2018-03-30T17:24:53.173Z,12.84
2018-03-30T17:27:20.923Z,12.72
2018-03-30T17:29:48.924Z,12.71
2018-03-30T17:32:16.706Z,12.45
2018-03-30T17:34:44.453Z,12.35
2018-03-30T17:37:12.198Z,12.31
2018-03-30T17:39:39.976Z,12.33
2018-03-30T17:42:07.737Z,12.08
2018-03-30T17:44:35.481Z,12.08
2018-03-30T17:47:03.255Z,11.94
2018-03-30T17:49:31.019Z,11.85
2018-03-30T17:51:58.773Z,11.82
2018-03-30T17:54:26.932Z,11.76
2018-03-30T17:56:54.666Z,11.74
2018-03-30T17:59:22.419Z,11.57
2018-03-30T18:01:50.192Z,11.53
2018-03-30T18:04:17.937Z,11.37
2018-03-30T18:06:45.755Z,11.36
2018-03-30T18:09:13.840Z,11.39
2018-03-30T18:11:41.700Z,11.39
2018-03-30T18:14:09.726Z,11.46
2018-03-30T18:16:37.634Z,11.26
2018-03-30T18:19:05.497Z,11.32
2018-03-30T18:21:33.196Z,11.19
2018-03-30T18:24:00.943Z,11.01
2018-03-30T18:26:28.677Z,10.95
2018-03-30T18:28:56.473Z,10.91
2018-03-30T18:31:24.282Z,10.95
2018-03-30T18:33:52.042Z,10.99
2018-03-30T18:36:19.827Z,10.95
2018-03-30T18:38:51.768Z,11.02
2018-03-30T18:41:19.533Z,10.92
2018-03-30T18:43:47.349Z,10.86
2018-03-30T18:46:15.096Z,10.79
2018-03-30T18:48:43.493Z,10.75
2018-03-30T18:51:11.301Z,10.74
2018-03-30T18:53:39.058Z,10.67
2018-03-30T18:56:06.860Z,10.66
2018-03-30T18:58:34.586Z,10.79
2018-03-30T19:01:02.351Z,10.68
2018-03-30T19:03:30.113Z,10.84
2018-03-30T19:05:57.865Z,10.83
2018-03-30T19:08:25.595Z,10.67
2018-03-30T19:10:53.561Z,10.65
2018-03-30T19:13:21.301Z,10.79
2018-03-30T19:15:49.047Z,10.73
2018-03-30T19:18:16.877Z,10.68
2018-03-30T19:20:44.639Z,10.64
2018-03-30T19:23:12.383Z,10.70
2018-03-30T19:25:40.152Z,10.50
2018-03-30T19:28:07.886Z,10.48
2018-03-30T19:30:35.774Z,10.28
2018-03-30T19:33:03.551Z,10.43
2018-03-30T19:35:31.330Z,10.37
2018-03-30T19:37:59.051Z,10.11
2018-03-30T19:40:26.781Z,10.09
2018-03-30T19:42:54.538Z,10.04
2018-03-30T19:45:22.292Z,9.78
2018-03-30T19:47:50.718Z,9.67
2018-03-30T19:50:18.437Z,9.83
2018-03-30T19:52:46.177Z,9.75
2018-03-30T19:55:13.920Z,9.88
2018-03-30T19:57:41.676Z,9.71
2018-03-30T20:00:09.402Z,9.64
2018-03-30T20:02:37.145Z,9.45
2018-03-30T20:05:07.833Z,9.50
2018-03-30T20:07:35.591Z,9.67
2018-03-30T20:10:06.893Z,9.77
2018-03-30T20:12:35.033Z,9.85
2018-03-30T20:15:06.010Z,9.85
2018-03-30T20:17:33.968Z,9.80
2018-03-30T20:22:34.818Z,9.54
2018-03-30T20:25:06.526Z,9.59
2018-03-30T20:27:34.260Z,9.44
2018-03-30T20:30:05.465Z,9.62
2018-03-30T20:32:33.252Z,9.78
2018-03-30T20:35:00.990Z,9.83
2018-03-30T20:37:31.572Z,9.85
2018-03-30T20:39:59.308Z,9.84
2018-03-30T20:42:27.027Z,9.46
2018-03-30T20:44:54.781Z,9.59
2018-03-30T20:47:22.523Z,9.69
2018-03-30T20:49:50.260Z,9.61
2018-03-30T20:52:18.197Z,9.57
2018-03-30T20:54:45.935Z,9.79
2018-03-30T20:57:13.915Z,9.78
2018-03-30T20:59:41.706Z,9.63
2018-03-30T21:02:09.491Z,9.47
2018-03-30T21:04:37.436Z,9.65
2018-03-30T21:07:05.172Z,9.57
2018-03-30T21:09:32.933Z,9.75
2018-03-30T21:12:00.681Z,9.53
2018-03-30T21:14:29.074Z,9.40
2018-03-30T21:16:56.823Z,9.38
2018-03-30T21:19:24.556Z,9.32
2018-03-30T21:21:52.496Z,9.53
2018-03-30T21:24:20.262Z,9.48
2018-03-30T21:26:48.333Z,9.52
2018-03-30T21:29:16.131Z,9.49
2018-03-30T21:31:43.888Z,9.49
2018-03-30T21:34:11.672Z,9.44
2018-03-30T21:36:39.360Z,9.33
2018-03-30T21:39:07.112Z,9.47
2018-03-30T21:41:34.868Z,9.53
2018-03-30T21:44:02.596Z,9.46
2018-03-30T21:46:30.345Z,9.39
2018-03-30T21:48:58.588Z,9.30
2018-03-30T21:51:26.306Z,9.27
2018-03-30T21:53:54.042Z,9.29
2018-03-30T21:56:21.814Z,9.28
2018-03-30T21:58:49.557Z,9.39
2018-03-30T22:01:17.305Z,9.35
2018-03-30T22:03:45.045Z,9.24
2018-03-30T22:06:12.897Z,9.17
2018-03-30T22:08:40.649Z,9.34
2018-03-30T22:11:08.582Z,9.37
2018-03-30T22:13:36.317Z,9.15
2018-03-30T22:16:04.053Z,9.00
2018-03-30T22:18:31.793Z,9.15
2018-03-30T22:20:59.530Z,9.16
2018-03-30T22:23:27.292Z,9.07
2018-03-30T22:25:55.015Z,8.72
2018-03-30T22:28:22.778Z,8.82
2018-03-30T22:30:50.511Z,8.86
2018-03-30T22:33:18.383Z,8.76
2018-03-30T22:35:46.110Z,8.93
2018-03-30T22:38:13.841Z,8.92
2018-03-30T22:40:41.563Z,8.86
2018-03-30T22:43:09.315Z,8.88
2018-03-30T22:45:37.177Z,8.71
2018-03-30T22:48:04.913Z,8.75
2018-03-30T22:50:33.137Z,8.64
2018-03-30T22:53:00.869Z,8.63
2018-03-30T22:55:28.633Z,8.52
2018-03-30T22:57:56.393Z,8.50
2018-03-30T23:00:24.384Z,8.54
2018-03-30T23:02:52.322Z,8.44
2018-03-30T23:05:20.048Z,8.32
2018-03-30T23:07:47.772Z,8.26
2018-03-30T23:10:15.529Z,8.11
2018-03-30T23:12:43.364Z,8.05
2018-03-30T23:15:11.286Z,7.98
2018-03-30T23:17:39.037Z,7.96
2018-03-30T23:20:06.865Z,7.90
2018-03-30T23:22:34.602Z,7.87
2018-03-30T23:25:06.077Z,7.91
2018-03-30T23:27:33.865Z,7.91
2018-03-30T23:30:04.972Z,7.89
2018-03-30T23:32:32.751Z,7.88
2018-03-30T23:35:00.486Z,8.27
2018-03-30T23:37:31.489Z,8.06
2018-03-30T23:39:59.244Z,7.98
2018-03-30T23:42:27.021Z,8.02
2018-03-30T23:44:54.749Z,8.00
2018-03-30T23:47:22.501Z,7.98
2018-03-30T23:49:50.236Z,7.98
2018-03-30T23:52:18.131Z,7.82
2018-03-30T23:54:45.846Z,7.83
2018-03-30T23:57:13.683Z,7.82
2018-03-30T23:59:41.499Z,7.90
